Tuesday, January 15, 2019, 11:44 PM GMT
Back to Local

CWQH, Lennoxville

Location: , , Canada Lat: 45.367
Local Time: 11:44 PM GMT (23:44 GMT) Lon: -71.817
Time Zone: GMT Elev: 593 ft

Show me the last for .
Show Decoded

2019-01-15 23:00 METAR CWQH 152300Z AUTO 12001KT M06/M08 RMK AO1 SOG 14 T10611079 =
2019-01-15 22:00 METAR CWQH 152200Z AUTO 00000KT M06/M08 RMK AO1 SOG 14 T10591080 =
2019-01-15 21:00 METAR CWQH 152100Z AUTO 00000KT M06/M08 RMK AO1 SOG 14 T10581082 =
2019-01-15 20:00 METAR CWQH 152000Z AUTO 09001KT M06/M08 RMK AO1 SOG 14 T10581084 =
2019-01-15 19:00 METAR CWQH 151900Z AUTO 02001KT M06/M09 RMK AO1 SOG 14 T10591088 =
2019-01-15 18:00 METAR CWQH 151800Z AUTO 00000KT M06/M09 RMK AO1 SOG 14 T10601089 =
2019-01-15 17:00 METAR CWQH 151700Z AUTO 00000KT M07/M09 RMK AO1 SOG 14 T10711092 =
2019-01-15 16:00 METAR CWQH 151600Z AUTO 21001KT M08/M10 RMK AO1 SOG 14 T10821102 =
2019-01-15 15:00 METAR CWQH 151500Z AUTO 17001KT M10/M12 RMK AO1 SOG 14 T10951116 =
2019-01-15 14:00 METAR CWQH 151400Z AUTO 00000KT M10/M12 RMK AO1 SOG 14 T11031122 =
2019-01-15 13:00 METAR CWQH 151300Z AUTO 00000KT M11/M13 RMK AO1 SOG 14 T11101126 =
2019-01-15 12:00 METAR CWQH 151200Z AUTO 20001KT M12/M13 RMK AO1 SOG 14 T11161131 =
2019-01-15 11:00 METAR CWQH 151100Z AUTO 05001KT M12/M13 RMK AO1 SOG 14 T11161133 =
2019-01-15 10:00 METAR CWQH 151000Z AUTO 00000KT M12/M14 RMK AO1 SOG 14 T11221140 =
2019-01-15 09:00 METAR CWQH 150900Z AUTO 00000KT M12/M14 RMK AO1 SOG 14 T11151144 =
2019-01-15 08:00 METAR CWQH 150800Z AUTO 08001KT M13/M15 RMK AO1 SOG 14 T11271148 =
2019-01-15 07:00 METAR CWQH 150700Z AUTO 06003KT M13/M15 RMK AO1 SOG 14 T11311149 =
2019-01-15 06:00 METAR CWQH 150600Z AUTO 04002KT M13/M15 RMK AO1 SOG 14 T11251151 =
2019-01-15 05:00 METAR CWQH 150500Z AUTO 06001KT M15/M16 RMK AO1 SOG 14 T11451161 =
2019-01-15 04:00 METAR CWQH 150400Z AUTO 00000KT M16/M18 RMK AO1 SOG 14 T11631180 =
2019-01-15 03:00 METAR CWQH 150300Z AUTO 04001KT M16/M18 RMK AO1 SOG 14 T11551181 =
2019-01-15 02:00 METAR CWQH 150200Z AUTO 01002KT M16/M18 RMK AO1 SOG 14 T11631182 =
2019-01-15 01:00 METAR CWQH 150100Z AUTO 15001KT M15/M17 RMK AO1 SOG 14 T11531169 =
2019-01-15 00:00 METAR CWQH 150000Z AUTO 09003KT M14/M16 RMK AO1 SOG 14 T11441164 =

Support USWX by starting your Amazon purchase here.